createdAt,value
2023-05-25T00:00:25.358Z,1.70
2023-05-25T00:03:49.581Z,2.05
2023-05-25T00:07:11.918Z,2.03
2023-05-25T00:10:34.274Z,1.70
2023-05-25T00:13:56.488Z,1.90
2023-05-25T00:17:18.933Z,1.83
2023-05-25T00:20:41.339Z,1.80
2023-05-25T00:24:04.743Z,1.88
2023-05-25T00:27:27.052Z,1.83
2023-05-25T00:30:49.518Z,1.63
2023-05-25T00:34:11.991Z,1.73
2023-05-25T00:37:34.294Z,1.90
2023-05-25T00:40:57.196Z,2.15
2023-05-25T00:44:21.907Z,1.52
2023-05-25T00:47:45.574Z,1.55
2023-05-25T00:51:09.633Z,1.42
2023-05-25T00:54:33.460Z,2.25
2023-05-25T00:58:00.609Z,2.00
2023-05-25T01:01:25.654Z,1.45
2023-05-25T01:04:53.192Z,1.35
2023-05-25T01:08:19.644Z,1.73
2023-05-25T01:11:44.331Z,1.73
2023-05-25T01:15:09.192Z,1.77
2023-05-25T01:18:31.455Z,1.55
2023-05-25T01:21:56.546Z,1.83
2023-05-25T01:25:40.169Z,1.50
2023-05-25T01:29:03.217Z,1.70
2023-05-25T01:32:26.432Z,1.30
2023-05-25T01:35:49.640Z,1.60
2023-05-25T01:39:13.070Z,1.25
2023-05-25T01:42:35.459Z,1.35
2023-05-25T01:46:30.441Z,1.60
2023-05-25T01:50:22.389Z,1.58
2023-05-25T01:53:50.989Z,1.38
2023-05-25T01:57:16.748Z,1.60
2023-05-25T02:00:41.690Z,1.40
2023-05-25T02:04:04.679Z,1.67
2023-05-25T02:07:27.797Z,1.70
2023-05-25T02:10:50.886Z,1.40
2023-05-25T02:14:13.574Z,1.48
2023-05-25T02:17:37.146Z,1.60
2023-05-25T02:21:00.395Z,2.28
2023-05-25T02:24:24.680Z,1.67
2023-05-25T02:27:48.434Z,1.80
2023-05-25T02:31:10.840Z,1.70
2023-05-25T02:34:33.460Z,1.63
2023-05-25T02:37:55.868Z,1.80
2023-05-25T02:41:21.892Z,1.70
2023-05-25T02:44:48.441Z,2.03
2023-05-25T02:48:10.898Z,1.52
2023-05-25T02:51:33.717Z,1.70
2023-05-25T02:54:56.445Z,1.63
2023-05-25T02:58:26.107Z,1.63
2023-05-25T03:02:21.203Z,1.60
2023-05-25T03:05:43.949Z,1.70
2023-05-25T03:09:07.290Z,1.63
2023-05-25T03:12:29.693Z,1.52
2023-05-25T03:15:52.297Z,1.60
2023-05-25T03:19:15.032Z,1.35
2023-05-25T03:22:37.596Z,1.88
2023-05-25T03:26:00.402Z,1.85
2023-05-25T03:29:23.288Z,2.25
2023-05-25T03:32:45.774Z,1.90
2023-05-25T03:36:09.180Z,1.67
2023-05-25T03:39:31.498Z,1.70
2023-05-25T03:42:53.737Z,1.50
2023-05-25T03:46:16.773Z,1.70
2023-05-25T03:49:39.325Z,1.50
2023-05-25T03:53:01.573Z,1.98
2023-05-25T03:56:23.967Z,1.65
2023-05-25T03:59:46.952Z,1.48
2023-05-25T04:03:10.882Z,1.50
2023-05-25T04:06:37.133Z,1.40
2023-05-25T04:09:59.751Z,1.58
2023-05-25T04:13:22.000Z,1.50
2023-05-25T04:16:46.023Z,1.67
2023-05-25T04:20:11.007Z,1.80
2023-05-25T04:23:36.501Z,1.50
2023-05-25T04:26:59.751Z,1.42
2023-05-25T04:30:22.356Z,1.50
2023-05-25T04:34:03.809Z,1.80
2023-05-25T04:37:30.553Z,1.63
2023-05-25T04:44:17.822Z,1.40
2023-05-25T04:47:43.884Z,1.65
2023-05-25T04:51:07.712Z,1.65
2023-05-25T04:54:30.316Z,1.52
2023-05-25T05:01:20.608Z,1.58
2023-05-25T05:04:43.945Z,1.75
2023-05-25T05:08:06.298Z,1.83
2023-05-25T05:11:29.083Z,1.60
2023-05-25T05:14:53.127Z,1.52
2023-05-25T05:18:15.943Z,1.90
2023-05-25T05:21:39.118Z,1.60
2023-05-25T05:25:02.762Z,1.70
2023-05-25T05:28:27.391Z,1.60
2023-05-25T05:31:49.900Z,1.25
2023-05-25T05:35:12.383Z,1.98
2023-05-25T05:38:41.419Z,1.63
2023-05-25T05:42:08.137Z,1.70
2023-05-25T05:45:30.558Z,1.67
2023-05-25T05:48:55.206Z,1.52
2023-05-25T05:52:18.649Z,1.60
2023-05-25T05:55:40.990Z,1.70
2023-05-25T05:59:03.431Z,1.40
2023-05-25T06:02:26.006Z,1.52
2023-05-25T06:05:48.665Z,1.75
2023-05-25T06:09:12.779Z,1.43
2023-05-25T06:12:35.367Z,1.60
2023-05-25T06:15:57.649Z,1.67
2023-05-25T06:19:21.121Z,1.95
2023-05-25T06:22:43.686Z,1.65
2023-05-25T06:26:06.501Z,1.63
2023-05-25T06:29:28.993Z,1.60
2023-05-25T06:32:51.385Z,1.50
2023-05-25T06:36:15.821Z,1.35
2023-05-25T06:39:40.634Z,1.75
2023-05-25T06:43:02.975Z,2.05
2023-05-25T06:46:45.021Z,1.67
2023-05-25T06:50:08.262Z,1.55
2023-05-25T06:53:31.514Z,1.48
2023-05-25T06:56:53.957Z,1.67
2023-05-25T07:00:16.919Z,1.70
2023-05-25T07:03:39.097Z,1.70
2023-05-25T07:07:01.666Z,1.90
2023-05-25T07:10:24.157Z,1.63
2023-05-25T07:13:46.692Z,2.13
2023-05-25T07:17:08.862Z,1.50
2023-05-25T07:20:31.196Z,2.10
2023-05-25T07:23:53.452Z,1.67
2023-05-25T07:27:16.491Z,1.80
2023-05-25T07:30:42.919Z,1.77
2023-05-25T07:34:05.243Z,1.60
2023-05-25T07:37:27.597Z,1.77
2023-05-25T07:40:50.094Z,1.60
2023-05-25T07:44:12.419Z,2.20
2023-05-25T07:47:34.751Z,1.90
2023-05-25T07:50:57.370Z,2.00
2023-05-25T07:54:19.639Z,2.08
2023-05-25T07:57:42.146Z,1.92
2023-05-25T08:01:04.524Z,1.75
2023-05-25T08:04:26.897Z,1.92
2023-05-25T08:07:49.250Z,2.10
2023-05-25T08:11:12.024Z,1.80
2023-05-25T08:14:34.223Z,2.03
2023-05-25T08:17:56.856Z,1.80
2023-05-25T08:21:19.263Z,1.98
2023-05-25T08:24:41.544Z,2.20
2023-05-25T08:28:04.005Z,1.83
2023-05-25T08:31:26.540Z,2.20
2023-05-25T08:34:48.830Z,2.00
2023-05-25T08:38:11.231Z,2.10
2023-05-25T08:41:41.328Z,2.10
2023-05-25T08:45:04.039Z,2.00
2023-05-25T08:48:39.897Z,1.88
2023-05-25T08:52:05.883Z,1.70
2023-05-25T08:55:31.580Z,1.70
2023-05-25T08:59:06.944Z,1.67
2023-05-25T09:02:51.183Z,1.95
2023-05-25T09:06:14.411Z,1.60
2023-05-25T09:09:38.933Z,2.15
2023-05-25T09:13:16.593Z,1.70
2023-05-25T09:16:43.025Z,1.75
2023-05-25T09:20:06.281Z,1.63
2023-05-25T09:23:28.853Z,1.92
2023-05-25T09:26:51.264Z,1.70
2023-05-25T09:30:13.925Z,2.22
2023-05-25T09:33:39.960Z,1.77
2023-05-25T09:37:13.057Z,1.80
2023-05-25T09:40:37.970Z,2.38
2023-05-25T09:44:11.167Z,2.30
2023-05-25T09:47:36.754Z,2.63
2023-05-25T09:50:59.203Z,1.77
2023-05-25T09:54:22.884Z,1.98
2023-05-25T09:57:45.099Z,2.47
2023-05-25T10:01:07.543Z,2.00
2023-05-25T10:04:29.838Z,2.10
2023-05-25T10:07:55.984Z,1.70
2023-05-25T10:11:21.279Z,1.95
2023-05-25T10:14:46.120Z,1.58
2023-05-25T10:18:12.225Z,1.70
2023-05-25T10:21:37.055Z,2.17
2023-05-25T10:25:23.357Z,2.45
2023-05-25T10:28:48.028Z,1.90
2023-05-25T10:32:11.079Z,1.63
2023-05-25T10:35:50.740Z,1.92
2023-05-25T10:39:20.276Z,1.98
2023-05-25T10:42:43.080Z,1.83
2023-05-25T10:46:07.055Z,2.30
2023-05-25T10:49:35.959Z,1.90
2023-05-25T10:53:08.367Z,1.92
2023-05-25T10:56:30.753Z,2.20
2023-05-25T11:00:06.633Z,2.42
2023-05-25T11:04:15.622Z,3.50
2023-05-25T11:07:56.596Z,3.75
2023-05-25T11:11:19.311Z,2.80
2023-05-25T11:14:43.572Z,2.78
2023-05-25T11:18:06.020Z,2.50
2023-05-25T11:21:28.943Z,2.40
2023-05-25T11:24:53.068Z,2.33
2023-05-25T11:28:15.802Z,2.20
2023-05-25T11:31:42.452Z,2.20
2023-05-25T11:35:09.270Z,2.17
2023-05-25T11:38:31.574Z,2.10
2023-05-25T11:42:03.078Z,2.47
2023-05-25T11:45:28.460Z,2.00
2023-05-25T11:48:53.096Z,2.17
2023-05-25T11:52:17.123Z,2.20
2023-05-25T11:55:41.680Z,1.92
2023-05-25T11:59:07.948Z,1.90
2023-05-25T12:02:38.901Z,2.10
2023-05-25T12:06:02.405Z,2.30
2023-05-25T12:09:24.629Z,1.80
2023-05-25T12:12:51.595Z,1.45
2023-05-25T12:16:14.408Z,2.00
2023-05-25T12:19:37.009Z,1.83
2023-05-25T12:22:59.419Z,1.40
2023-05-25T12:26:21.668Z,1.52
2023-05-25T12:29:50.195Z,1.70
2023-05-25T12:33:14.842Z,1.67
2023-05-25T12:36:46.286Z,1.77
2023-05-25T12:40:21.110Z,1.60
2023-05-25T12:43:43.931Z,2.00
2023-05-25T12:47:15.950Z,1.55
2023-05-25T12:50:38.388Z,2.00
2023-05-25T12:54:01.571Z,1.70
2023-05-25T12:57:36.248Z,2.00
2023-05-25T13:00:58.585Z,1.85
2023-05-25T13:04:21.446Z,1.60
2023-05-25T13:07:44.222Z,1.90
2023-05-25T13:11:06.741Z,1.67
2023-05-25T13:14:30.263Z,1.73
2023-05-25T13:17:54.305Z,1.40
2023-05-25T13:21:16.647Z,1.70
2023-05-25T13:24:38.963Z,1.85
2023-05-25T13:28:02.121Z,1.55
2023-05-25T13:31:25.051Z,1.33
2023-05-25T13:34:47.346Z,1.40
2023-05-25T13:38:10.591Z,1.33
2023-05-25T13:41:32.902Z,1.38
2023-05-25T13:44:55.183Z,1.30
2023-05-25T13:48:17.653Z,1.30
2023-05-25T13:51:39.987Z,1.35
2023-05-25T13:55:02.283Z,1.45
2023-05-25T13:58:27.557Z,1.55
2023-05-25T14:01:50.021Z,1.83
2023-05-25T14:05:12.318Z,1.65
2023-05-25T14:08:34.651Z,1.67
2023-05-25T14:11:57.131Z,1.83
2023-05-25T14:15:19.420Z,1.55
2023-05-25T14:18:41.823Z,1.50
2023-05-25T14:22:13.302Z,1.50
2023-05-25T14:25:36.824Z,1.52
2023-05-25T14:28:59.074Z,1.73
2023-05-25T14:32:21.352Z,0.98
2023-05-25T14:35:43.925Z,1.48
2023-05-25T14:39:06.303Z,1.60
2023-05-25T14:42:30.195Z,1.02
2023-05-25T14:45:52.435Z,1.15
2023-05-25T14:49:16.782Z,1.40
2023-05-25T14:52:39.131Z,1.10
2023-05-25T14:56:03.645Z,1.42
2023-05-25T14:59:25.902Z,1.25
2023-05-25T15:02:48.227Z,1.48
2023-05-25T15:06:10.724Z,1.63
2023-05-25T15:09:33.906Z,1.65
2023-05-25T15:12:56.241Z,2.22
2023-05-25T15:16:18.516Z,1.92
2023-05-25T15:19:40.870Z,1.88
2023-05-25T15:23:03.079Z,2.05
2023-05-25T15:26:26.462Z,1.77
2023-05-25T15:29:48.825Z,2.15
2023-05-25T15:33:13.691Z,2.00
2023-05-25T15:36:36.815Z,2.55
2023-05-25T15:39:59.217Z,1.52
2023-05-25T15:43:21.521Z,2.03
2023-05-25T15:46:43.863Z,1.95
2023-05-25T15:50:06.821Z,1.60
2023-05-25T15:53:30.430Z,1.98
2023-05-25T15:56:52.727Z,1.77
2023-05-25T16:00:15.734Z,1.92
2023-05-25T16:03:37.949Z,2.08
2023-05-25T16:07:01.391Z,1.88
2023-05-25T16:10:23.717Z,2.10
2023-05-25T16:13:46.040Z,2.10
2023-05-25T16:17:08.359Z,1.75
2023-05-25T16:20:30.831Z,1.77
2023-05-25T16:23:53.079Z,2.03
2023-05-25T16:27:15.481Z,2.00
2023-05-25T16:30:37.983Z,2.47
2023-05-25T16:34:01.500Z,2.10
2023-05-25T16:37:23.754Z,1.60
2023-05-25T16:40:46.093Z,2.35
2023-05-25T16:44:11.410Z,2.20
2023-05-25T16:47:33.648Z,2.13
2023-05-25T16:50:56.120Z,1.77
2023-05-25T16:54:18.382Z,1.73
2023-05-25T16:57:40.603Z,2.03
2023-05-25T17:01:02.981Z,2.90
2023-05-25T17:04:25.316Z,1.90
2023-05-25T17:07:47.608Z,2.05
2023-05-25T17:11:09.918Z,1.90
2023-05-25T17:14:32.355Z,1.73
2023-05-25T17:17:54.647Z,2.13
2023-05-25T17:21:16.980Z,1.88
2023-05-25T17:24:39.319Z,2.17
2023-05-25T17:28:01.557Z,2.22
2023-05-25T17:31:23.900Z,2.75
2023-05-25T17:34:46.247Z,2.15
2023-05-25T17:38:08.506Z,1.88
2023-05-25T17:41:30.936Z,2.40
2023-05-25T17:44:53.357Z,2.08
2023-05-25T17:48:15.771Z,2.63
2023-05-25T17:51:38.081Z,2.13
2023-05-25T17:55:00.473Z,2.67
2023-05-25T17:58:22.738Z,3.25
2023-05-25T18:01:45.095Z,3.30
2023-05-25T18:05:07.559Z,2.70
2023-05-25T18:08:29.781Z,2.88
2023-05-25T18:11:55.093Z,2.53
2023-05-25T18:15:17.853Z,2.58
2023-05-25T18:18:40.100Z,2.83
2023-05-25T18:22:02.449Z,2.58
2023-05-25T18:25:24.857Z,3.30
2023-05-25T18:28:47.039Z,3.08
2023-05-25T18:32:09.383Z,2.92
2023-05-25T18:35:31.586Z,2.85
2023-05-25T18:38:54.032Z,2.72
2023-05-25T18:42:16.290Z,2.72
2023-05-25T18:45:38.544Z,2.78
2023-05-25T18:49:01.037Z,2.25
2023-05-25T18:52:24.440Z,2.60
2023-05-25T18:55:46.912Z,2.30
2023-05-25T18:59:09.386Z,2.42
2023-05-25T19:02:31.671Z,2.42
2023-05-25T19:05:53.995Z,2.47
2023-05-25T19:09:16.266Z,2.60
2023-05-25T19:12:38.552Z,2.60
2023-05-25T19:16:01.323Z,2.53
2023-05-25T19:19:23.632Z,2.78
2023-05-25T19:22:46.413Z,2.20
2023-05-25T19:26:08.629Z,2.38
2023-05-25T19:29:31.207Z,2.15
2023-05-25T19:32:53.455Z,1.90
2023-05-25T19:36:16.153Z,1.98
2023-05-25T19:39:38.497Z,2.08
2023-05-25T19:43:00.774Z,2.30
2023-05-25T19:46:23.100Z,2.47
2023-05-25T19:49:45.921Z,2.00
2023-05-25T19:53:08.341Z,1.85
2023-05-25T19:56:30.931Z,2.45
2023-05-25T19:59:53.691Z,2.40
2023-05-25T20:03:17.481Z,1.75
2023-05-25T20:06:39.829Z,2.03
2023-05-25T20:10:02.530Z,1.70
2023-05-25T20:13:25.004Z,2.35
2023-05-25T20:16:47.561Z,1.88
2023-05-25T20:20:10.068Z,1.88
2023-05-25T20:23:32.384Z,2.08
2023-05-25T20:26:56.814Z,1.90
2023-05-25T20:30:19.692Z,1.80
2023-05-25T20:33:41.928Z,2.15
2023-05-25T20:37:04.218Z,2.40
2023-05-25T20:40:27.152Z,1.98
2023-05-25T20:43:49.460Z,1.98
2023-05-25T20:47:11.749Z,1.80
2023-05-25T20:50:34.237Z,1.75
2023-05-25T20:53:56.499Z,1.75
2023-05-25T20:57:18.719Z,2.30
2023-05-25T21:00:40.994Z,1.88
2023-05-25T21:04:03.413Z,2.60
2023-05-25T21:07:25.688Z,1.83
2023-05-25T21:10:47.986Z,1.75
2023-05-25T21:14:10.349Z,1.70
2023-05-25T21:17:32.557Z,1.50
2023-05-25T21:20:54.882Z,1.77
2023-05-25T21:24:17.298Z,1.77
2023-05-25T21:27:39.539Z,1.77
2023-05-25T21:31:01.977Z,1.70
2023-05-25T21:34:24.195Z,1.80
2023-05-25T21:37:46.497Z,1.95
2023-05-25T21:41:10.091Z,2.00
2023-05-25T21:44:32.494Z,1.70
2023-05-25T21:47:54.709Z,1.55
2023-05-25T21:51:17.289Z,2.22
2023-05-25T21:54:39.574Z,2.08
2023-05-25T21:58:01.997Z,1.77
2023-05-25T22:01:24.294Z,1.55
2023-05-25T22:04:46.656Z,1.55
2023-05-25T22:08:09.140Z,1.88
2023-05-25T22:11:31.373Z,1.70
2023-05-25T22:14:53.685Z,1.83
2023-05-25T22:18:15.987Z,1.60
2023-05-25T22:21:38.214Z,2.00
2023-05-25T22:25:00.614Z,1.70
2023-05-25T22:28:22.798Z,1.88
2023-05-25T22:31:45.111Z,1.50
2023-05-25T22:35:07.852Z,1.90
2023-05-25T22:38:30.143Z,1.73
2023-05-25T22:41:52.965Z,1.75
2023-05-25T22:45:15.687Z,2.05
2023-05-25T22:48:37.969Z,1.67
2023-05-25T22:52:00.198Z,1.83
2023-05-25T22:55:22.591Z,1.88
2023-05-25T22:58:44.851Z,1.95
2023-05-25T23:02:07.595Z,1.73
2023-05-25T23:05:30.259Z,1.50
2023-05-25T23:08:53.249Z,1.63
2023-05-25T23:12:15.563Z,2.38
2023-05-25T23:15:39.916Z,1.98
2023-05-25T23:19:02.344Z,1.60
2023-05-25T23:22:24.722Z,1.70
2023-05-25T23:25:47.196Z,2.00
2023-05-25T23:29:09.598Z,1.80
2023-05-25T23:32:31.825Z,1.88
2023-05-25T23:35:54.059Z,1.67
2023-05-25T23:39:16.258Z,1.52
2023-05-25T23:42:39.883Z,2.00
2023-05-25T23:46:02.513Z,1.80
2023-05-25T23:49:24.767Z,1.50
2023-05-25T23:52:47.065Z,1.70
2023-05-25T23:56:09.247Z,1.80
2023-05-25T23:59:31.514Z,1.77
